createdAt,value
2019-06-27T00:01:00.570Z,98863.92
2019-06-27T00:06:21.995Z,98860.91
2019-06-27T00:11:43.903Z,98877.55
2019-06-27T00:17:05.648Z,98854.66
2019-06-27T00:22:27.306Z,98854.59
2019-06-27T00:27:49.040Z,98851.77
2019-06-27T00:33:10.771Z,98858.20
2019-06-27T00:38:32.545Z,98860.48
2019-06-27T00:43:54.193Z,98866.52
2019-06-27T00:49:15.904Z,98869.32
2019-06-27T00:54:37.330Z,98874.02
2019-06-27T00:59:59.036Z,98864.59
2019-06-27T01:05:21.137Z,98864.77
2019-06-27T01:10:42.449Z,98858.92
2019-06-27T01:16:04.326Z,98860.05
2019-06-27T01:21:25.879Z,98865.66
2019-06-27T01:26:47.627Z,98859.25
2019-06-27T01:32:09.726Z,98859.92
2019-06-27T01:37:31.470Z,98859.67
2019-06-27T01:42:53.397Z,98848.91
2019-06-27T01:48:14.802Z,98851.44
2019-06-27T01:53:36.498Z,98853.10
2019-06-27T01:58:58.151Z,98850.98
2019-06-27T02:04:19.945Z,98839.35
2019-06-27T02:09:41.583Z,98843.74
2019-06-27T02:15:03.459Z,98849.28
2019-06-27T02:20:25.021Z,98842.44
2019-06-27T02:25:46.753Z,98851.16
2019-06-27T02:31:08.200Z,98834.59
2019-06-27T02:36:30.113Z,98833.29
2019-06-27T02:41:51.440Z,98827.53
2019-06-27T02:47:13.389Z,98845.85
2019-06-27T02:52:35.091Z,98837.85
2019-06-27T02:57:56.549Z,98832.56
2019-06-27T03:03:18.737Z,98817.42
2019-06-27T03:08:40.420Z,98824.08
2019-06-27T03:14:02.310Z,98822.83
2019-06-27T03:19:23.749Z,98832.51
2019-06-27T03:24:45.337Z,98820.49
2019-06-27T03:30:07.412Z,98820.31
2019-06-27T03:35:29.060Z,98819.77
2019-06-27T03:40:51.053Z,98811.63
2019-06-27T03:46:12.763Z,98813.11
2019-06-27T03:51:34.411Z,98815.03
2019-06-27T03:56:56.084Z,98819.34
2019-06-27T04:02:17.819Z,98826.09
2019-06-27T04:07:39.519Z,98807.91
2019-06-27T04:13:01.405Z,98810.53
2019-06-27T04:18:23.208Z,98812.77
2019-06-27T04:23:44.984Z,98806.44
2019-06-27T04:29:06.435Z,98801.97
2019-06-27T04:34:28.188Z,98799.69
2019-06-27T04:39:49.728Z,98800.06
2019-06-27T04:45:11.577Z,98799.89
2019-06-27T04:50:33.074Z,98804.50
2019-06-27T04:55:55.037Z,98779.83
2019-06-27T05:01:16.927Z,98803.94
2019-06-27T05:06:38.448Z,98799.74
2019-06-27T05:12:00.140Z,98785.84
2019-06-27T05:17:21.773Z,98797.02
2019-06-27T05:22:43.237Z,98794.80
2019-06-27T05:28:06.976Z,98789.55
2019-06-27T05:33:28.673Z,98781.32
2019-06-27T05:38:50.560Z,98787.98
2019-06-27T05:44:12.363Z,98784.54
2019-06-27T05:49:34.435Z,98797.08
2019-06-27T05:54:56.112Z,98780.45
2019-06-27T06:00:28.254Z,98779.28
2019-06-27T06:05:41.427Z,98791.11
2019-06-27T06:11:03.047Z,98775.55
2019-06-27T06:16:24.441Z,98775.42
2019-06-27T06:21:46.155Z,98779.98
2019-06-27T06:27:07.341Z,98767.03
2019-06-27T06:32:29.270Z,98766.07
2019-06-27T06:37:51.261Z,98768.66
2019-06-27T06:43:13.072Z,98741.49
2019-06-27T06:48:34.769Z,98762.66
2019-06-27T06:53:57.080Z,98735.59
2019-06-27T06:59:18.288Z,98734.02
2019-06-27T07:04:40.182Z,98746.13
2019-06-27T07:10:02.351Z,98725.27
2019-06-27T07:15:24.146Z,98736.77
2019-06-27T07:20:46.037Z,98728.00
2019-06-27T07:26:07.917Z,98727.45
2019-06-27T07:31:29.667Z,98719.55
2019-06-27T07:36:51.055Z,98714.77
2019-06-27T07:42:12.877Z,98720.95
2019-06-27T07:47:34.477Z,98719.44
2019-06-27T07:52:56.039Z,98714.22
2019-06-27T07:58:17.836Z,98690.13
2019-06-27T08:03:39.237Z,98696.91
2019-06-27T08:09:01.436Z,98688.44
2019-06-27T08:14:23.554Z,98681.77
2019-06-27T08:19:45.360Z,98674.63
2019-06-27T08:25:07.103Z,98676.92
2019-06-27T08:30:29.055Z,98664.67
2019-06-27T08:35:50.890Z,98683.27
2019-06-27T08:41:14.153Z,98673.30
2019-06-27T08:46:36.129Z,98658.25
2019-06-27T08:51:57.871Z,98664.77
2019-06-27T08:57:19.482Z,98638.75
2019-06-27T09:02:41.258Z,98634.86
2019-06-27T09:08:02.900Z,98637.45
2019-06-27T09:13:24.408Z,98634.69
2019-06-27T09:18:45.998Z,98625.70
2019-06-27T09:24:07.728Z,98621.69
2019-06-27T09:29:29.583Z,98607.56
2019-06-27T09:34:50.956Z,98595.88
2019-06-27T09:40:12.872Z,98603.18
2019-06-27T09:45:34.710Z,98591.62
2019-06-27T09:50:56.352Z,98608.59
2019-06-27T09:56:18.361Z,98586.96
2019-06-27T10:01:39.847Z,98579.11
2019-06-27T10:07:01.596Z,98567.05
2019-06-27T10:12:22.954Z,98570.75
2019-06-27T10:17:44.552Z,98562.05
2019-06-27T10:23:06.397Z,98543.41
2019-06-27T10:28:27.865Z,98538.82
2019-06-27T10:33:49.506Z,98542.06
2019-06-27T10:39:11.143Z,98525.94
2019-06-27T10:44:32.732Z,98530.72
2019-06-27T10:49:54.630Z,98518.78
2019-06-27T10:55:16.771Z,98526.12
2019-06-27T11:00:38.632Z,98530.95
2019-06-27T11:06:00.060Z,98511.54
2019-06-27T11:11:21.756Z,98495.16
2019-06-27T11:16:44.160Z,98492.92
2019-06-27T11:22:08.378Z,98481.51
2019-06-27T11:27:30.094Z,98484.32
2019-06-27T11:32:51.417Z,98483.44
2019-06-27T11:38:13.237Z,98462.02
2019-06-27T11:43:34.882Z,98468.39
2019-06-27T11:48:56.640Z,98458.00
2019-06-27T11:54:18.635Z,98436.91
2019-06-27T11:59:40.171Z,98436.66
2019-06-27T12:05:01.926Z,98434.46
2019-06-27T12:10:23.761Z,98432.57
2019-06-27T12:15:45.165Z,98421.27
2019-06-27T12:21:06.929Z,98413.36
2019-06-27T12:26:28.511Z,98407.82
2019-06-27T12:31:51.679Z,98404.81
2019-06-27T12:37:13.623Z,98398.98
2019-06-27T12:42:35.522Z,98403.27
2019-06-27T12:48:06.165Z,98387.86
2019-06-27T12:53:20.774Z,98398.73
2019-06-27T12:58:42.643Z,98383.45
2019-06-27T13:04:04.301Z,98375.00
2019-06-27T13:09:25.661Z,98376.99
2019-06-27T13:14:47.298Z,98354.89
2019-06-27T13:20:09.980Z,98347.59
2019-06-27T13:25:34.160Z,98339.92
2019-06-27T13:30:55.057Z,98331.91
2019-06-27T13:36:16.557Z,98324.85
2019-06-27T13:41:38.249Z,98328.86
2019-06-27T13:46:59.717Z,98331.04
2019-06-27T13:52:21.150Z,98308.89
2019-06-27T13:57:42.796Z,98313.40
2019-06-27T14:03:04.754Z,98320.48
2019-06-27T14:08:26.758Z,98302.11
2019-06-27T14:13:48.523Z,98299.30
2019-06-27T14:19:10.249Z,98289.95
2019-06-27T14:24:31.979Z,98277.73
2019-06-27T14:29:56.499Z,98277.09
2019-06-27T14:35:18.060Z,98266.91
2019-06-27T14:40:39.694Z,98248.29
2019-06-27T14:46:01.223Z,98228.27
2019-06-27T14:51:22.459Z,98235.91
2019-06-27T14:56:43.954Z,98230.37
2019-06-27T15:02:06.105Z,98214.23
2019-06-27T15:07:28.010Z,98212.08
2019-06-27T15:12:57.171Z,98208.80
2019-06-27T15:18:16.482Z,98189.88
2019-06-27T15:23:36.202Z,98195.12
2019-06-27T15:28:57.089Z,98186.31
2019-06-27T15:34:18.986Z,98179.73
2019-06-27T15:39:40.635Z,98180.54
2019-06-27T15:45:02.455Z,98184.12
2019-06-27T15:50:24.004Z,98170.34
2019-06-27T15:55:45.742Z,98168.21
2019-06-27T16:01:07.497Z,98164.86
2019-06-27T16:06:29.837Z,98161.59
2019-06-27T16:11:51.168Z,98153.64
2019-06-27T16:17:12.958Z,98148.31
2019-06-27T16:22:34.509Z,98150.61
2019-06-27T16:27:56.362Z,98152.30
2019-06-27T16:33:17.982Z,98143.19
2019-06-27T16:38:40.250Z,98145.73
2019-06-27T16:44:01.811Z,98135.91
2019-06-27T16:49:23.424Z,98139.76
2019-06-27T16:54:45.257Z,98139.88
2019-06-27T17:00:07.194Z,98132.77
2019-06-27T17:05:29.166Z,98136.09
2019-06-27T17:10:50.603Z,98134.75
2019-06-27T17:16:12.365Z,98142.70
2019-06-27T17:21:34.312Z,98136.12
2019-06-27T17:26:55.812Z,98120.94
2019-06-27T17:32:17.289Z,98123.20
2019-06-27T17:37:39.395Z,98131.53
2019-06-27T17:43:01.225Z,98121.54
2019-06-27T17:48:23.017Z,98115.27
2019-06-27T17:53:44.775Z,98131.49
2019-06-27T17:59:06.768Z,98137.74
2019-06-27T18:04:28.253Z,98154.20
2019-06-27T18:09:50.099Z,98140.31
2019-06-27T18:15:12.093Z,98167.00
2019-06-27T18:20:33.629Z,98144.27
2019-06-27T18:25:55.615Z,98153.32
2019-06-27T18:31:20.106Z,98155.55
2019-06-27T18:36:41.645Z,98158.02
2019-06-27T18:42:03.439Z,98171.63
2019-06-27T18:47:25.243Z,98177.67
2019-06-27T18:52:46.831Z,98168.77
2019-06-27T18:58:08.555Z,98183.89
2019-06-27T19:03:30.430Z,98177.52
2019-06-27T19:08:52.290Z,98170.97
2019-06-27T19:14:13.991Z,98183.36
2019-06-27T19:19:43.479Z,98184.20
2019-06-27T19:25:11.310Z,98187.08
2019-06-27T19:30:32.751Z,98187.95
2019-06-27T19:35:54.347Z,98212.48
2019-06-27T19:41:16.062Z,98191.39
2019-06-27T19:46:38.033Z,98208.66
2019-06-27T19:51:59.460Z,98208.78
2019-06-27T19:57:21.696Z,98195.66
2019-06-27T20:02:43.278Z,98191.81
2019-06-27T20:08:18.485Z,98187.13
2019-06-27T20:13:28.351Z,98182.50
2019-06-27T20:18:50.125Z,98174.00
2019-06-27T20:24:12.000Z,98170.03
2019-06-27T20:29:33.502Z,98171.27
2019-06-27T20:34:55.237Z,98167.52
2019-06-27T20:40:19.673Z,98175.47
2019-06-27T20:45:41.203Z,98173.05
2019-06-27T20:51:02.854Z,98171.72
2019-06-27T20:56:24.465Z,98171.36
2019-06-27T21:01:46.158Z,98176.23
2019-06-27T21:07:10.937Z,98176.84
2019-06-27T21:12:34.169Z,98176.62
2019-06-27T21:17:56.265Z,98161.05
2019-06-27T21:23:19.955Z,98154.09
2019-06-27T21:28:41.988Z,98146.52
2019-06-27T21:34:03.909Z,98132.13
2019-06-27T21:39:25.219Z,98128.59
2019-06-27T21:44:46.693Z,98131.84
2019-06-27T21:50:08.663Z,98134.93
2019-06-27T21:55:30.691Z,98128.38
2019-06-27T22:00:53.064Z,98130.51
2019-06-27T22:06:14.914Z,98124.08
2019-06-27T22:11:36.740Z,98136.30
2019-06-27T22:16:58.315Z,98118.11
2019-06-27T22:22:20.035Z,98112.94
2019-06-27T22:27:41.664Z,98100.19
2019-06-27T22:33:03.599Z,98095.20
2019-06-27T22:38:43.269Z,98086.41
2019-06-27T22:44:23.413Z,98084.58
2019-06-27T22:49:48.752Z,98077.00
2019-06-27T22:55:15.382Z,98061.78
2019-06-27T23:00:37.717Z,98049.77
2019-06-27T23:06:00.686Z,98043.84
2019-06-27T23:11:23.993Z,98038.34
2019-06-27T23:16:45.860Z,98037.84
2019-06-27T23:22:07.568Z,98031.10
2019-06-27T23:27:29.428Z,98027.57
2019-06-27T23:32:51.205Z,98013.19
2019-06-27T23:38:12.373Z,98012.34
2019-06-27T23:43:33.680Z,98015.88
2019-06-27T23:48:54.983Z,97992.23
2019-06-27T23:54:16.699Z,97996.37
2019-06-27T23:59:38.587Z,97986.10
